Time;durP1;ratioP1;P1;durP2;ratioP2;P2;SDS_P1;SDS_P2;PMS_P1;PMS_P2;Temp;Humidity;BMP_temperature;BMP_pressure;BME280_temperature;BME280_humidity;BME280_pressure;Samples;Min_cycle;Max_cycle;Signal;HPM_P1;HPM_P2
2023/05/17 00:00:51;;;;;;;;;;;13.10;99.90;;;;;;5032491;28;20022;-41
2023/05/17 00:03:17;;;;;;;;;;;13.10;99.90;;;;;;5032539;28;19952;-41
2023/05/17 00:05:42;;;;;;;;;;;13.10;99.90;;;;;;5032499;28;19905;-41
2023/05/17 00:08:08;;;;;;;;;;;13.10;99.90;;;;;;5032205;28;19931;-40
2023/05/17 00:10:33;;;;;;;;;;;13.10;99.90;;;;;;5032562;28;19909;-40
2023/05/17 00:12:59;;;;;;;;;;;13.10;99.90;;;;;;5031600;28;19905;-40
2023/05/17 00:15:24;;;;;;;;;;;13.10;99.90;;;;;;5032211;28;19906;-40
2023/05/17 00:17:50;;;;;;;;;;;13.10;99.90;;;;;;5031742;28;19908;-40
2023/05/17 00:20:15;;;;;;;;;;;13.10;99.90;;;;;;5032196;28;19905;-41
2023/05/17 00:22:42;;;;;;;;;;;13.10;99.90;;;;;;5032148;28;19998;-41
2023/05/17 00:25:07;;;;;;;;;;;13.10;99.90;;;;;;5032275;28;19908;-40
2023/05/17 00:27:33;;;;;;;;;;;13.10;99.90;;;;;;5031481;28;19905;-41
2023/05/17 00:29:58;;;;;;;;;;;13.10;99.90;;;;;;5031992;28;20362;-41
2023/05/17 00:32:24;;;;;;;;;;;13.00;99.90;;;;;;5032094;28;19906;-41
2023/05/17 00:34:49;;;;;;;;;;;13.00;99.90;;;;;;5031981;28;19954;-40
2023/05/17 00:37:15;;;;;;;;;;;13.00;99.90;;;;;;5030606;28;20453;-40
2023/05/17 00:39:40;;;;;;;;;;;13.00;99.90;;;;;;5032221;28;19909;-41
2023/05/17 00:42:06;;;;;;;;;;;13.00;99.90;;;;;;5031930;28;19964;-41
2023/05/17 00:44:31;;;;;;;;;;;13.00;99.90;;;;;;5032375;28;19909;-41
2023/05/17 00:46:58;;;;;;;;;;;13.00;99.90;;;;;;5031468;28;20397;-41
2023/05/17 00:49:24;;;;;;;;;;;13.00;99.90;;;;;;5031978;28;19905;-40
2023/05/17 00:51:50;;;;;;;;;;;13.00;99.90;;;;;;5032095;28;19913;-41
2023/05/17 00:54:16;;;;;;;;;;;13.00;99.90;;;;;;5032367;28;19905;-40
2023/05/17 00:56:41;;;;;;;;;;;13.00;99.90;;;;;;5030295;28;19909;-41
2023/05/17 00:59:07;;;;;;;;;;;13.00;99.90;;;;;;5032186;28;20055;-41
2023/05/17 01:01:34;;;;;;;;;;;13.00;99.90;;;;;;5031858;28;19987;-39
2023/05/17 01:03:59;;;;;;;;;;;12.90;99.90;;;;;;5031945;28;19912;-41
2023/05/17 01:06:25;;;;;;;;;;;12.90;99.90;;;;;;5031437;28;19909;-43
2023/05/17 01:08:50;;;;;;;;;;;12.90;99.90;;;;;;5031941;28;19916;-41
2023/05/17 01:11:28;;;;;;;;;;;12.90;99.90;;;;;;5031863;28;19912;-41
2023/05/17 01:13:53;;;;;;;;;;;12.90;99.90;;;;;;5031649;28;19912;-40
2023/05/17 01:16:25;;;;;;;;;;;12.90;99.90;;;;;;5031223;28;20289;-41
2023/05/17 01:18:57;;;;;;;;;;;12.90;99.90;;;;;;5031646;28;20128;-40
2023/05/17 01:21:22;;;;;;;;;;;12.90;99.90;;;;;;5031703;28;19988;-41
2023/05/17 01:23:57;;;;;;;;;;;12.90;99.90;;;;;;5032093;28;19998;-40
2023/05/17 01:26:39;;;;;;;;;;;12.90;99.90;;;;;;5035054;28;19974;-41
2023/05/17 01:29:06;;;;;;;;;;;12.90;99.90;;;;;;5035361;28;19905;-40
2023/05/17 01:31:31;;;;;;;;;;;12.90;99.90;;;;;;5035139;28;20326;-41
2023/05/17 01:33:57;;;;;;;;;;;12.90;99.90;;;;;;5035308;28;19951;-41
2023/05/17 01:36:23;;;;;;;;;;;12.90;99.90;;;;;;5034072;28;19912;-42
2023/05/17 01:38:49;;;;;;;;;;;12.80;99.90;;;;;;5035111;28;20393;-41
2023/05/17 01:41:35;;;;;;;;;;;12.90;99.90;;;;;;5035577;28;19912;-41
2023/05/17 01:44:11;;;;;;;;;;;12.80;99.90;;;;;;5034562;28;19909;-40
2023/05/17 01:46:40;;;;;;;;;;;12.80;99.90;;;;;;5034805;28;19905;-42
2023/05/17 01:49:28;;;;;;;;;;;12.80;99.90;;;;;;5035012;28;19932;-40
2023/05/17 01:52:12;;;;;;;;;;;12.80;99.90;;;;;;5034812;28;19959;-41
2023/05/17 01:54:45;;;;;;;;;;;12.80;99.90;;;;;;5035027;28;19997;-40
2023/05/17 01:57:10;;;;;;;;;;;12.80;99.90;;;;;;5034402;28;19991;-40
2023/05/17 01:59:37;;;;;;;;;;;12.80;99.90;;;;;;5034754;28;20446;-40
2023/05/17 02:02:07;;;;;;;;;;;12.80;99.90;;;;;;5034909;28;19909;-40
2023/05/17 02:04:33;;;;;;;;;;;12.80;99.90;;;;;;5034999;28;19962;-41
2023/05/17 02:06:59;;;;;;;;;;;12.80;99.90;;;;;;5034280;28;19909;-41
2023/05/17 02:09:24;;;;;;;;;;;12.70;99.90;;;;;;5035150;28;19958;-40
2023/05/17 02:11:49;;;;;;;;;;;12.70;99.90;;;;;;5034943;28;20347;-41
2023/05/17 02:14:15;;;;;;;;;;;12.70;99.90;;;;;;5034760;28;19905;-41
2023/05/17 02:16:40;;;;;;;;;;;12.70;99.90;;;;;;5033898;28;20117;-40
2023/05/17 02:19:07;;;;;;;;;;;12.70;99.90;;;;;;5033069;28;19909;-41
2023/05/17 02:21:33;;;;;;;;;;;12.70;99.90;;;;;;5034425;28;20457;-40
2023/05/17 02:23:59;;;;;;;;;;;12.70;99.90;;;;;;5034410;28;19992;-41
2023/05/17 02:26:25;;;;;;;;;;;12.70;99.90;;;;;;5033751;28;20358;-40
2023/05/17 02:28:50;;;;;;;;;;;12.70;99.90;;;;;;5034391;28;19969;-41
2023/05/17 02:31:16;;;;;;;;;;;12.60;99.90;;;;;;5033985;28;19905;-40
2023/05/17 02:33:41;;;;;;;;;;;12.70;99.90;;;;;;5034227;28;20339;-40
2023/05/17 02:36:07;;;;;;;;;;;12.60;99.90;;;;;;5033390;28;20382;-41
2023/05/17 02:38:32;;;;;;;;;;;12.60;99.90;;;;;;5034297;28;19909;-41
2023/05/17 02:40:58;;;;;;;;;;;12.60;99.90;;;;;;5033758;28;20263;-41
2023/05/17 02:43:23;;;;;;;;;;;12.60;99.90;;;;;;5033964;28;19963;-41
2023/05/17 02:45:49;;;;;;;;;;;12.60;99.90;;;;;;5033466;28;19912;-40
2023/05/17 02:48:15;;;;;;;;;;;12.60;99.90;;;;;;5033680;28;20258;-41
2023/05/17 02:50:40;;;;;;;;;;;12.60;99.90;;;;;;5034063;28;19905;-41
2023/05/17 02:53:05;;;;;;;;;;;12.60;99.90;;;;;;5032679;28;19905;-40
2023/05/17 02:55:31;;;;;;;;;;;12.60;99.90;;;;;;5033638;28;19909;-41
2023/05/17 02:57:56;;;;;;;;;;;12.60;99.90;;;;;;5032959;28;19912;-40
2023/05/17 03:00:22;;;;;;;;;;;12.60;99.90;;;;;;5033677;28;19905;-43
2023/05/17 03:02:47;;;;;;;;;;;12.60;99.90;;;;;;5033572;28;20142;-40
2023/05/17 03:05:13;;;;;;;;;;;12.60;99.90;;;;;;5034004;28;19905;-41
2023/05/17 03:07:39;;;;;;;;;;;12.60;99.90;;;;;;5033078;28;19912;-40
2023/05/17 03:10:05;;;;;;;;;;;12.60;99.90;;;;;;5033839;28;19909;-41
2023/05/17 03:12:31;;;;;;;;;;;12.60;99.90;;;;;;5033620;28;19909;-41
2023/05/17 03:14:56;;;;;;;;;;;12.50;99.90;;;;;;5033505;28;20032;-43
2023/05/17 03:17:22;;;;;;;;;;;12.60;99.90;;;;;;5033066;28;20361;-41
2023/05/17 03:19:47;;;;;;;;;;;12.50;99.90;;;;;;5033091;28;19909;-41
2023/05/17 03:22:13;;;;;;;;;;;12.50;99.90;;;;;;5033553;28;19980;-40
2023/05/17 03:24:38;;;;;;;;;;;12.50;99.90;;;;;;5033324;28;20583;-41
2023/05/17 03:27:04;;;;;;;;;;;12.50;99.90;;;;;;5032578;28;19906;-40
2023/05/17 03:29:29;;;;;;;;;;;12.50;99.90;;;;;;5032947;28;20282;-41
2023/05/17 03:31:55;;;;;;;;;;;12.50;99.90;;;;;;5033027;28;20382;-40
2023/05/17 03:34:20;;;;;;;;;;;12.50;99.90;;;;;;5032924;28;19905;-41
2023/05/17 03:36:46;;;;;;;;;;;12.50;99.90;;;;;;5032456;28;20000;-40
2023/05/17 03:39:11;;;;;;;;;;;12.50;99.90;;;;;;5033028;28;19913;-40
2023/05/17 03:41:37;;;;;;;;;;;12.50;99.90;;;;;;5032923;28;19912;-40
2023/05/17 03:44:02;;;;;;;;;;;12.50;99.90;;;;;;5033222;28;20281;-40
2023/05/17 03:46:28;;;;;;;;;;;12.50;99.90;;;;;;5032416;28;19999;-40
2023/05/17 03:48:54;;;;;;;;;;;12.40;99.90;;;;;;5032078;28;19910;-41
2023/05/17 03:51:19;;;;;;;;;;;12.40;99.90;;;;;;5033138;28;19905;-41
2023/05/17 03:53:45;;;;;;;;;;;12.40;99.90;;;;;;5032643;28;19905;-41
2023/05/17 03:56:10;;;;;;;;;;;12.40;99.90;;;;;;5032018;28;20274;-40
2023/05/17 03:58:36;;;;;;;;;;;12.40;99.90;;;;;;5032386;28;19917;-41
2023/05/17 04:01:02;;;;;;;;;;;12.40;99.90;;;;;;5032787;28;20277;-41
2023/05/17 04:03:28;;;;;;;;;;;12.40;99.90;;;;;;5032973;28;20047;-40
2023/05/17 04:05:59;;;;;;;;;;;12.40;99.90;;;;;;5032376;28;20381;-40
2023/05/17 04:08:24;;;;;;;;;;;12.40;99.90;;;;;;5032399;28;20294;-40
2023/05/17 04:10:50;;;;;;;;;;;12.40;99.90;;;;;;5032249;28;19905;-40
2023/05/17 04:13:15;;;;;;;;;;;12.40;99.90;;;;;;5032563;28;19905;-41
2023/05/17 04:15:41;;;;;;;;;;;12.40;99.90;;;;;;5032678;28;19959;-40
2023/05/17 04:18:06;;;;;;;;;;;12.40;99.90;;;;;;5032370;28;20453;-40
2023/05/17 04:20:32;;;;;;;;;;;12.40;99.90;;;;;;5033042;28;19905;-40
2023/05/17 04:22:57;;;;;;;;;;;12.40;99.90;;;;;;5032618;28;20000;-41
2023/05/17 04:25:23;;;;;;;;;;;12.40;99.90;;;;;;5032198;28;19991;-41
2023/05/17 04:27:49;;;;;;;;;;;12.30;99.90;;;;;;5032113;28;19905;-41
2023/05/17 04:30:15;;;;;;;;;;;12.40;99.90;;;;;;5032529;28;19943;-40
2023/05/17 04:32:41;;;;;;;;;;;12.30;99.90;;;;;;5032761;28;19905;-40
2023/05/17 04:35:07;;;;;;;;;;;12.30;99.90;;;;;;5032420;28;19905;-40
2023/05/17 04:37:33;;;;;;;;;;;12.30;99.90;;;;;;5031582;28;19996;-41
2023/05/17 04:39:58;;;;;;;;;;;12.30;99.90;;;;;;5032836;28;19909;-41
2023/05/17 04:42:24;;;;;;;;;;;12.30;99.90;;;;;;5032304;28;19913;-41
2023/05/17 04:44:50;;;;;;;;;;;12.30;99.90;;;;;;5032309;28;20045;-40
2023/05/17 04:47:15;;;;;;;;;;;12.20;99.90;;;;;;5031661;28;19905;-40
2023/05/17 04:49:42;;;;;;;;;;;12.00;99.90;;;;;;5032527;28;20104;-40
2023/05/17 04:52:07;;;;;;;;;;;11.60;99.90;;;;;;5032930;28;20329;-40
2023/05/17 04:54:33;;;;;;;;;;;11.50;99.90;;;;;;5032420;28;19940;-40
2023/05/17 04:56:59;;;;;;;;;;;11.50;99.90;;;;;;5031404;28;19905;-40
2023/05/17 04:59:24;;;;;;;;;;;11.60;99.90;;;;;;5033208;28;19909;-41
2023/05/17 05:01:49;;;;;;;;;;;11.60;99.90;;;;;;5036080;28;19905;-42
2023/05/17 05:04:15;;;;;;;;;;;11.70;99.90;;;;;;5036624;28;19912;-39
2023/05/17 05:06:40;;;;;;;;;;;11.80;99.90;;;;;;5035667;28;20442;-39
2023/05/17 05:09:06;;;;;;;;;;;11.80;99.90;;;;;;5037401;28;20369;-40
2023/05/17 05:11:32;;;;;;;;;;;11.90;99.90;;;;;;5035749;28;19913;-40
2023/05/17 05:13:57;;;;;;;;;;;11.90;99.90;;;;;;5036260;28;19905;-40
2023/05/17 05:16:23;;;;;;;;;;;12.00;99.90;;;;;;5035149;28;19905;-39
2023/05/17 05:18:48;;;;;;;;;;;12.00;99.90;;;;;;5035560;28;19972;-40
2023/05/17 05:21:14;;;;;;;;;;;12.00;99.90;;;;;;5036368;28;19905;-40
2023/05/17 05:23:39;;;;;;;;;;;12.10;99.90;;;;;;5035819;28;20269;-40
2023/05/17 05:26:05;;;;;;;;;;;12.10;99.90;;;;;;5035727;28;20023;-40
2023/05/17 05:28:30;;;;;;;;;;;12.10;99.90;;;;;;5035622;28;19951;-41
2023/05/17 05:30:58;;;;;;;;;;;12.10;99.90;;;;;;5035990;28;19991;-40
2023/05/17 05:33:24;;;;;;;;;;;12.20;99.90;;;;;;5036632;28;20267;-40
2023/05/17 05:35:50;;;;;;;;;;;12.20;99.90;;;;;;5034276;28;19909;-40
2023/05/17 05:38:15;;;;;;;;;;;12.20;99.90;;;;;;5034977;28;19909;-40
2023/05/17 05:40:41;;;;;;;;;;;12.20;99.90;;;;;;5034852;28;19909;-40
2023/05/17 05:43:06;;;;;;;;;;;12.20;99.90;;;;;;5035037;28;19905;-40
2023/05/17 05:45:32;;;;;;;;;;;12.20;99.90;;;;;;5035158;28;19909;-40
2023/05/17 05:47:57;;;;;;;;;;;12.30;99.90;;;;;;5035010;28;19912;-40
2023/05/17 05:50:23;;;;;;;;;;;12.30;99.90;;;;;;5034856;28;19959;-40
2023/05/17 05:52:48;;;;;;;;;;;12.30;99.90;;;;;;5035140;28;20354;-39
2023/05/17 05:55:14;;;;;;;;;;;12.30;99.90;;;;;;5035039;28;19912;-39
2023/05/17 05:57:39;;;;;;;;;;;12.30;99.90;;;;;;5035015;28;19931;-40
2023/05/17 06:00:05;;;;;;;;;;;12.30;99.90;;;;;;5034947;28;19905;-41
2023/05/17 06:02:32;;;;;;;;;;;12.30;99.90;;;;;;5035714;28;20000;-40
2023/05/17 06:04:57;;;;;;;;;;;12.40;99.90;;;;;;5036142;28;19909;-40
2023/05/17 06:07:23;;;;;;;;;;;12.40;99.90;;;;;;5035264;28;19912;-40
2023/05/17 06:09:48;;;;;;;;;;;12.40;99.90;;;;;;5035066;28;19905;-40
2023/05/17 06:12:15;;;;;;;;;;;12.40;99.90;;;;;;5033954;28;19909;-40
2023/05/17 06:14:40;;;;;;;;;;;12.50;99.90;;;;;;5034323;28;19952;-40
2023/05/17 06:17:06;;;;;;;;;;;12.50;99.90;;;;;;5034197;28;19936;-41
2023/05/17 06:19:31;;;;;;;;;;;12.50;99.90;;;;;;5035553;28;20008;-41
2023/05/17 06:21:57;;;;;;;;;;;12.50;99.90;;;;;;5035070;28;20285;-40
2023/05/17 06:24:22;;;;;;;;;;;12.50;99.90;;;;;;5034405;28;19912;-41
2023/05/17 06:26:48;;;;;;;;;;;12.50;99.90;;;;;;5034841;28;19984;-40
2023/05/17 06:29:13;;;;;;;;;;;12.60;99.90;;;;;;5034216;28;19905;-40
2023/05/17 06:31:39;;;;;;;;;;;12.60;99.90;;;;;;5034755;28;19905;-40
2023/05/17 06:34:04;;;;;;;;;;;12.60;99.90;;;;;;5034700;28;19947;-40
2023/05/17 06:36:30;;;;;;;;;;;12.60;99.90;;;;;;5033720;28;19909;-41
2023/05/17 06:38:55;;;;;;;;;;;12.70;99.90;;;;;;5033906;28;19909;-40
2023/05/17 06:41:21;;;;;;;;;;;12.70;99.90;;;;;;5033872;28;20643;-39
2023/05/17 06:43:46;;;;;;;;;;;12.70;99.90;;;;;;5033772;28;19912;-40
2023/05/17 06:46:12;;;;;;;;;;;12.70;99.90;;;;;;5033414;28;20063;-40
2023/05/17 06:48:37;;;;;;;;;;;12.80;99.90;;;;;;5033909;28;19905;-39
2023/05/17 06:51:03;;;;;;;;;;;12.80;99.90;;;;;;5033878;28;19911;-40
2023/05/17 06:53:28;;;;;;;;;;;12.80;99.90;;;;;;5032752;28;19912;-41
2023/05/17 06:55:54;;;;;;;;;;;12.90;99.90;;;;;;5033695;28;19983;-40
2023/05/17 06:58:19;;;;;;;;;;;12.90;99.90;;;;;;5033377;28;19909;-41
2023/05/17 07:00:45;;;;;;;;;;;12.90;99.90;;;;;;5033644;28;19905;-40
2023/05/17 07:03:10;;;;;;;;;;;12.90;99.90;;;;;;5033504;28;19905;-39
2023/05/17 07:05:36;;;;;;;;;;;13.00;99.90;;;;;;5033446;28;19936;-40
2023/05/17 07:08:01;;;;;;;;;;;12.80;99.90;;;;;;5032959;28;19991;-40
2023/05/17 07:10:27;;;;;;;;;;;12.40;99.90;;;;;;5033765;28;19905;-40
2023/05/17 07:12:52;;;;;;;;;;;12.00;99.90;;;;;;5033229;28;20273;-40
2023/05/17 07:15:18;;;;;;;;;;;11.90;99.90;;;;;;5033339;28;19958;-42
2023/05/17 07:17:43;;;;;;;;;;;12.00;99.90;;;;;;5032588;28;19905;-42
2023/05/17 07:20:09;;;;;;;;;;;11.70;99.90;;;;;;5033150;28;20072;-40
2023/05/17 07:22:36;;;;;;;;;;;11.70;99.90;;;;;;5032989;28;19951;-42
2023/05/17 07:25:01;;;;;;;;;;;11.70;99.90;;;;;;5033156;28;20286;-40
2023/05/17 07:27:27;;;;;;;;;;;11.70;99.90;;;;;;5032421;28;19905;-40
2023/05/17 07:29:53;;;;;;;;;;;11.70;99.90;;;;;;5033098;28;19912;-40
2023/05/17 07:32:18;;;;;;;;;;;11.70;99.90;;;;;;5033257;28;19905;-40
2023/05/17 07:34:44;;;;;;;;;;;11.50;99.90;;;;;;5032906;28;19908;-40
2023/05/17 07:37:10;;;;;;;;;;;11.40;99.90;;;;;;5032464;28;19944;-40
2023/05/17 07:39:35;;;;;;;;;;;11.30;99.90;;;;;;5032724;28;20009;-40
2023/05/17 07:42:01;;;;;;;;;;;11.30;99.90;;;;;;5032964;28;19913;-41
2023/05/17 07:44:27;;;;;;;;;;;11.30;99.90;;;;;;5032742;28;19909;-40
2023/05/17 07:46:52;;;;;;;;;;;11.40;99.90;;;;;;5032237;28;20279;-39
2023/05/17 07:49:18;;;;;;;;;;;11.40;99.90;;;;;;5032637;28;19912;-40
2023/05/17 07:51:43;;;;;;;;;;;11.40;99.90;;;;;;5032517;28;19911;-40
2023/05/17 07:54:09;;;;;;;;;;;11.40;99.90;;;;;;5032575;28;19951;-39
2023/05/17 07:56:34;;;;;;;;;;;11.50;99.90;;;;;;5032533;28;19908;-40
2023/05/17 07:59:00;;;;;;;;;;;11.50;99.90;;;;;;5032445;28;19966;-40
2023/05/17 08:01:26;;;;;;;;;;;11.60;99.90;;;;;;5032401;28;19905;-40
2023/05/17 08:03:52;;;;;;;;;;;11.60;99.90;;;;;;5032510;28;19975;-39
2023/05/17 08:06:18;;;;;;;;;;;11.60;99.90;;;;;;5031823;28;20416;-40
2023/05/17 08:08:43;;;;;;;;;;;11.60;99.90;;;;;;5032414;28;19905;-40
2023/05/17 08:11:10;;;;;;;;;;;11.50;99.90;;;;;;5032178;28;19912;-40
2023/05/17 08:13:35;;;;;;;;;;;11.40;99.90;;;;;;5032306;28;19909;-40
2023/05/17 08:16:02;;;;;;;;;;;11.40;99.90;;;;;;5031848;28;19932;-40
2023/05/17 08:18:31;;;;;;;;;;;11.40;99.90;;;;;;5032187;28;19909;-40
2023/05/17 08:20:56;;;;;;;;;;;11.60;99.90;;;;;;5032054;28;19905;-40
2023/05/17 08:23:22;;;;;;;;;;;11.60;99.90;;;;;;5032212;28;19909;-40
2023/05/17 08:25:47;;;;;;;;;;;11.70;99.90;;;;;;5031709;28;19905;-39
2023/05/17 08:28:13;;;;;;;;;;;11.80;99.90;;;;;;5031972;28;19905;-40
2023/05/17 08:30:38;;;;;;;;;;;11.80;99.90;;;;;;5032022;28;19912;-39
2023/05/17 08:33:04;;;;;;;;;;;11.90;99.90;;;;;;5032092;28;20251;-39
2023/05/17 08:35:30;;;;;;;;;;;11.90;99.90;;;;;;5030474;28;19936;-40
2023/05/17 08:37:56;;;;;;;;;;;11.90;99.90;;;;;;5031475;28;19963;-39
2023/05/17 08:40:21;;;;;;;;;;;11.90;99.90;;;;;;5031749;28;19929;-39
2023/05/17 08:42:49;;;;;;;;;;;11.90;99.90;;;;;;5032001;28;19912;-40
2023/05/17 08:45:14;;;;;;;;;;;11.90;99.90;;;;;;5032014;28;19905;-39
2023/05/17 08:47:41;;;;;;;;;;;11.90;99.90;;;;;;5031449;28;19905;-39
2023/05/17 08:50:07;;;;;;;;;;;11.90;99.90;;;;;;5031886;28;19995;-39
2023/05/17 08:52:34;;;;;;;;;;;11.80;99.90;;;;;;5031935;28;20008;-39
2023/05/17 08:55:03;;;;;;;;;;;11.70;99.90;;;;;;5031799;28;19912;-40
2023/05/17 08:57:29;;;;;;;;;;;11.80;99.90;;;;;;5031415;28;20003;-42
2023/05/17 08:59:57;;;;;;;;;;;11.80;99.90;;;;;;5031831;28;19999;-42
2023/05/17 09:02:23;;;;;;;;;;;11.80;99.90;;;;;;5031750;28;19909;-42
2023/05/17 09:04:54;;;;;;;;;;;11.80;99.90;;;;;;5031758;28;19951;-40
2023/05/17 09:07:21;;;;;;;;;;;11.90;99.90;;;;;;5031356;28;20002;-40
2023/05/17 09:09:46;;;;;;;;;;;11.90;99.90;;;;;;5031695;28;19906;-39
2023/05/17 09:12:12;;;;;;;;;;;11.90;99.90;;;;;;5031682;28;19909;-40
2023/05/17 09:14:38;;;;;;;;;;;11.90;99.90;;;;;;5031860;28;19905;-40
2023/05/17 09:17:03;;;;;;;;;;;11.90;99.90;;;;;;5031202;28;20003;-40
2023/05/17 09:19:29;;;;;;;;;;;11.90;99.90;;;;;;5031582;28;19909;-40
2023/05/17 09:21:54;;;;;;;;;;;11.90;99.90;;;;;;5031502;28;19911;-40
2023/05/17 09:24:29;;;;;;;;;;;12.00;99.90;;;;;;5031633;28;19909;-40
2023/05/17 09:27:02;;;;;;;;;;;12.00;99.90;;;;;;5031088;28;19905;-40
2023/05/17 09:29:29;;;;;;;;;;;12.10;99.90;;;;;;5031525;28;20416;-39
2023/05/17 09:31:55;;;;;;;;;;;12.20;99.90;;;;;;5031471;28;19909;-40
2023/05/17 09:34:23;;;;;;;;;;;12.20;99.90;;;;;;5031487;28;19905;-40
2023/05/17 09:36:48;;;;;;;;;;;12.20;99.90;;;;;;5030901;28;19944;-40
2023/05/17 09:39:14;;;;;;;;;;;12.20;99.90;;;;;;5031430;28;19955;-40
2023/05/17 09:41:41;;;;;;;;;;;12.20;99.90;;;;;;5031255;28;19912;-40
2023/05/17 09:44:08;;;;;;;;;;;12.20;99.90;;;;;;5031555;28;19909;-40
2023/05/17 09:46:34;;;;;;;;;;;12.20;99.90;;;;;;5032378;28;19920;-39
2023/05/17 09:49:03;;;;;;;;;;;12.20;99.90;;;;;;5034794;28;19905;-39
2023/05/17 09:51:32;;;;;;;;;;;12.30;99.90;;;;;;5034737;28;19916;-39
2023/05/17 09:53:58;;;;;;;;;;;12.40;99.90;;;;;;5034820;28;19913;-39
2023/05/17 09:56:26;;;;;;;;;;;12.50;99.90;;;;;;5034268;28;19905;-39
2023/05/17 09:58:52;;;;;;;;;;;12.50;99.90;;;;;;5034653;28;19912;-39
2023/05/17 10:01:18;;;;;;;;;;;12.50;99.90;;;;;;5034681;28;19912;-40
2023/05/17 10:03:44;;;;;;;;;;;12.50;99.90;;;;;;5034581;28;19905;-39
2023/05/17 10:06:11;;;;;;;;;;;12.50;99.90;;;;;;5034139;28;19960;-40
2023/05/17 10:08:37;;;;;;;;;;;12.50;99.90;;;;;;5034616;28;19905;-39
2023/05/17 10:11:07;;;;;;;;;;;12.60;99.90;;;;;;5034405;28;19909;-39
2023/05/17 10:13:34;;;;;;;;;;;12.60;99.90;;;;;;5034845;28;19947;-40
2023/05/17 10:16:00;;;;;;;;;;;12.70;99.90;;;;;;5034017;28;20358;-39
2023/05/17 10:18:26;;;;;;;;;;;12.70;99.90;;;;;;5034136;28;19932;-39
2023/05/17 10:20:52;;;;;;;;;;;12.70;99.90;;;;;;5034307;28;19913;-40
2023/05/17 10:23:19;;;;;;;;;;;12.70;99.90;;;;;;5034473;28;19905;-39
2023/05/17 10:25:44;;;;;;;;;;;12.80;99.90;;;;;;5034130;28;19905;-39
2023/05/17 10:28:11;;;;;;;;;;;12.80;99.90;;;;;;5033719;28;19916;-39
2023/05/17 10:30:36;;;;;;;;;;;12.90;99.90;;;;;;5034100;28;19904;-40
2023/05/17 10:33:03;;;;;;;;;;;12.90;99.90;;;;;;5033972;28;19967;-39
2023/05/17 10:35:29;;;;;;;;;;;12.90;99.90;;;;;;5034424;28;19908;-39
2023/05/17 10:37:54;;;;;;;;;;;12.90;99.90;;;;;;5032416;28;19945;-39
2023/05/17 10:40:22;;;;;;;;;;;13.00;99.90;;;;;;5032586;28;19951;-39
2023/05/17 10:42:51;;;;;;;;;;;12.90;99.90;;;;;;5034069;28;20396;-39
2023/05/17 10:45:21;;;;;;;;;;;13.00;99.90;;;;;;5033903;28;19912;-40
2023/05/17 10:47:47;;;;;;;;;;;13.00;99.90;;;;;;5033295;28;19992;-40
2023/05/17 10:50:13;;;;;;;;;;;13.00;99.90;;;;;;5033723;28;19909;-39
2023/05/17 10:52:48;;;;;;;;;;;13.00;99.90;;;;;;5033791;28;19999;-39
2023/05/17 10:55:17;;;;;;;;;;;13.00;99.90;;;;;;5033765;28;19906;-39
2023/05/17 10:57:43;;;;;;;;;;;13.00;99.90;;;;;;5032613;28;19955;-40
2023/05/17 11:00:18;;;;;;;;;;;13.00;99.90;;;;;;5033411;28;19909;-39
2023/05/17 11:02:43;;;;;;;;;;;13.00;99.90;;;;;;5033770;28;19905;-40
2023/05/17 11:05:21;;;;;;;;;;;12.90;99.90;;;;;;5033579;28;20411;-42
2023/05/17 11:07:47;;;;;;;;;;;12.90;99.90;;;;;;5033016;28;19905;-39
2023/05/17 11:10:13;;;;;;;;;;;12.90;99.90;;;;;;5033344;28;19915;-40
2023/05/17 11:12:40;;;;;;;;;;;12.90;99.90;;;;;;5033321;28;19909;-42
2023/05/17 11:15:07;;;;;;;;;;;12.90;99.90;;;;;;5033344;28;19905;-41
2023/05/17 11:17:34;;;;;;;;;;;12.90;99.90;;;;;;5032772;28;19909;-39
2023/05/17 11:20:00;;;;;;;;;;;12.90;99.90;;;;;;5033075;28;19916;-41
2023/05/17 11:22:26;;;;;;;;;;;12.90;99.90;;;;;;5033291;28;19995;-41
2023/05/17 11:24:53;;;;;;;;;;;13.00;99.90;;;;;;5033094;28;19909;-39
2023/05/17 11:27:19;;;;;;;;;;;13.00;99.90;;;;;;5032526;28;19932;-39
2023/05/17 11:29:48;;;;;;;;;;;13.10;99.90;;;;;;5033020;28;19905;-40
2023/05/17 11:32:13;;;;;;;;;;;13.10;99.90;;;;;;5032958;28;19905;-39
2023/05/17 11:34:39;;;;;;;;;;;13.10;99.90;;;;;;5033036;28;19928;-39
2023/05/17 11:37:09;;;;;;;;;;;13.10;99.90;;;;;;5032367;28;19913;-40
2023/05/17 11:39:35;;;;;;;;;;;13.20;99.90;;;;;;5032705;28;19916;-39
2023/05/17 11:42:01;;;;;;;;;;;13.20;99.90;;;;;;5032721;28;19913;-39
2023/05/17 11:44:30;;;;;;;;;;;13.20;99.90;;;;;;5033145;28;20324;-40
2023/05/17 11:47:09;;;;;;;;;;;13.20;99.90;;;;;;5032464;28;19951;-40
2023/05/17 11:49:38;;;;;;;;;;;13.10;99.90;;;;;;5032741;28;19909;-39
2023/05/17 11:52:04;;;;;;;;;;;13.10;99.90;;;;;;5033141;28;19905;-40
2023/05/17 11:54:30;;;;;;;;;;;13.10;99.90;;;;;;5032751;28;19997;-39
2023/05/17 11:56:56;;;;;;;;;;;13.10;99.90;;;;;;5033079;28;20347;-40
2023/05/17 11:59:22;;;;;;;;;;;13.10;99.90;;;;;;5032920;28;19995;-39
2023/05/17 12:01:48;;;;;;;;;;;13.10;99.90;;;;;;5033146;28;19952;-40
2023/05/17 12:04:22;;;;;;;;;;;13.10;99.90;;;;;;5032696;28;20359;-39
2023/05/17 12:06:47;;;;;;;;;;;13.20;99.90;;;;;;5031927;28;19916;-39
2023/05/17 12:09:16;;;;;;;;;;;13.20;99.90;;;;;;5031872;28;19909;-39
2023/05/17 12:11:42;;;;;;;;;;;13.20;99.90;;;;;;5032543;28;19905;-40
2023/05/17 12:14:07;;;;;;;;;;;13.20;99.90;;;;;;5032424;28;19905;-40
2023/05/17 12:16:35;;;;;;;;;;;13.20;99.90;;;;;;5031953;28;19916;-40
2023/05/17 12:19:00;;;;;;;;;;;13.20;99.90;;;;;;5032395;28;19909;-39
2023/05/17 12:21:26;;;;;;;;;;;13.30;99.90;;;;;;5032099;28;19905;-39
2023/05/17 12:23:51;;;;;;;;;;;13.30;99.90;;;;;;5030940;28;20040;-40
2023/05/17 12:26:18;;;;;;;;;;;13.30;99.90;;;;;;5031719;28;19958;-39
2023/05/17 12:28:56;;;;;;;;;;;13.40;99.90;;;;;;5032322;28;19905;-40
2023/05/17 12:31:29;;;;;;;;;;;13.40;99.90;;;;;;5032113;28;19905;-41
2023/05/17 12:33:57;;;;;;;;;;;13.40;99.90;;;;;;5032089;28;20584;-40
2023/05/17 12:36:24;;;;;;;;;;;13.40;99.90;;;;;;5031766;28;19909;-40
2023/05/17 12:38:50;;;;;;;;;;;13.40;99.90;;;;;;5032115;28;20290;-40
2023/05/17 12:41:16;;;;;;;;;;;13.50;99.90;;;;;;5031977;28;19913;-41
2023/05/17 12:43:43;;;;;;;;;;;13.50;99.90;;;;;;5032061;28;19912;-41
2023/05/17 12:46:10;;;;;;;;;;;13.50;99.90;;;;;;5031568;28;19911;-41
2023/05/17 12:48:36;;;;;;;;;;;13.60;99.90;;;;;;5032029;28;19913;-40
2023/05/17 12:51:21;;;;;;;;;;;13.60;99.90;;;;;;5031990;28;19912;-44
2023/05/17 12:53:50;;;;;;;;;;;13.60;99.90;;;;;;5032064;28;20350;-41
2023/05/17 12:56:17;;;;;;;;;;;13.60;99.90;;;;;;5031509;28;20350;-40
2023/05/17 12:58:43;;;;;;;;;;;13.60;99.90;;;;;;5031795;28;19919;-40
2023/05/17 13:01:13;;;;;;;;;;;13.70;99.90;;;;;;5031986;28;20159;-41
2023/05/17 13:03:48;;;;;;;;;;;13.70;99.90;;;;;;5032168;28;19937;-41
2023/05/17 13:06:14;;;;;;;;;;;13.70;99.90;;;;;;5031308;28;19911;-41
2023/05/17 13:08:39;;;;;;;;;;;13.80;99.90;;;;;;5031775;28;19995;-41
2023/05/17 13:11:06;;;;;;;;;;;13.90;99.90;;;;;;5032355;28;20408;-39
2023/05/17 13:13:32;;;;;;;;;;;13.90;99.90;;;;;;5031746;28;19905;-41
2023/05/17 13:15:57;;;;;;;;;;;13.90;99.90;;;;;;5031339;28;20449;-40
2023/05/17 13:18:23;;;;;;;;;;;13.80;99.90;;;;;;5031618;28;20015;-40
2023/05/17 13:20:50;;;;;;;;;;;13.80;99.90;;;;;;5033697;28;20068;-40
2023/05/17 13:23:15;;;;;;;;;;;13.80;99.90;;;;;;5035550;28;19909;-40
2023/05/17 13:25:41;;;;;;;;;;;13.80;99.90;;;;;;5035368;28;19905;-40
2023/05/17 13:28:06;;;;;;;;;;;13.80;99.90;;;;;;5034922;28;19964;-41
2023/05/17 13:30:32;;;;;;;;;;;13.80;99.90;;;;;;5035337;28;19954;-40
2023/05/17 13:32:58;;;;;;;;;;;13.80;99.90;;;;;;5035361;28;19928;-40
2023/05/17 13:35:23;;;;;;;;;;;13.80;99.90;;;;;;5035271;28;20002;-40
2023/05/17 13:37:49;;;;;;;;;;;13.80;99.90;;;;;;5034683;28;19905;-40
2023/05/17 13:40:14;;;;;;;;;;;13.90;99.90;;;;;;5034860;28;19916;-41
2023/05/17 13:42:40;;;;;;;;;;;13.90;99.90;;;;;;5035534;28;19909;-40
2023/05/17 13:45:07;;;;;;;;;;;13.90;99.90;;;;;;5035088;28;19905;-41
2023/05/17 13:47:34;;;;;;;;;;;13.90;99.90;;;;;;5033234;28;19951;-41
2023/05/17 13:49:59;;;;;;;;;;;13.90;99.90;;;;;;5035143;28;19959;-40
2023/05/17 13:52:25;;;;;;;;;;;14.00;99.90;;;;;;5034978;28;20317;-40
2023/05/17 13:54:51;;;;;;;;;;;14.00;99.90;;;;;;5035367;28;19912;-41
2023/05/17 13:57:16;;;;;;;;;;;14.00;99.90;;;;;;5034346;28;19946;-40
2023/05/17 13:59:42;;;;;;;;;;;14.10;99.90;;;;;;5034809;28;20299;-41
2023/05/17 14:02:08;;;;;;;;;;;14.10;99.90;;;;;;5034635;28;19950;-40
2023/05/17 14:04:33;;;;;;;;;;;14.20;99.90;;;;;;5034727;28;20011;-40
2023/05/17 14:07:00;;;;;;;;;;;14.20;99.90;;;;;;5032863;28;20294;-40
2023/05/17 14:09:29;;;;;;;;;;;14.30;99.90;;;;;;5034569;28;19912;-41
2023/05/17 14:11:54;;;;;;;;;;;14.20;99.90;;;;;;5034489;28;20324;-40